sensor_id;sensor_type;location;lat;lon;timestamp;temperature;humidity
14053;DHT22;7101;51.600;7.310;2023-02-11T00:02:07;6.10;29.60
14053;DHT22;7101;51.600;7.310;2023-02-11T00:04:34;6.20;29.90
14053;DHT22;7101;51.600;7.310;2023-02-11T00:07:01;6.10;25.50
14053;DHT22;7101;51.600;7.310;2023-02-11T00:09:28;6.00;30.00
14053;DHT22;7101;51.600;7.310;2023-02-11T00:11:55;6.10;32.10
14053;DHT22;7101;51.600;7.310;2023-02-11T00:14:23;6.10;30.90
14053;DHT22;7101;51.600;7.310;2023-02-11T00:16:50;6.10;30.60
14053;DHT22;7101;51.600;7.310;2023-02-11T00:19:17;6.00;31.50
14053;DHT22;7101;51.600;7.310;2023-02-11T00:21:44;6.10;31.20
14053;DHT22;7101;51.600;7.310;2023-02-11T00:24:11;6.00;31.10
14053;DHT22;7101;51.600;7.310;2023-02-11T00:26:38;6.10;32.50
14053;DHT22;7101;51.600;7.310;2023-02-11T00:29:05;6.10;33.60
14053;DHT22;7101;51.600;7.310;2023-02-11T00:31:33;6.00;35.30
14053;DHT22;7101;51.600;7.310;2023-02-11T00:34:00;6.10;37.50
14053;DHT22;7101;51.600;7.310;2023-02-11T00:36:28;6.10;35.10
14053;DHT22;7101;51.600;7.310;2023-02-11T00:38:56;6.10;35.40
14053;DHT22;7101;51.600;7.310;2023-02-11T00:41:23;6.20;33.10
14053;DHT22;7101;51.600;7.310;2023-02-11T00:43:50;6.10;34.90
14053;DHT22;7101;51.600;7.310;2023-02-11T00:46:17;6.10;40.10
14053;DHT22;7101;51.600;7.310;2023-02-11T00:48:46;6.10;39.20
14053;DHT22;7101;51.600;7.310;2023-02-11T00:51:13;6.20;38.30
14053;DHT22;7101;51.600;7.310;2023-02-11T00:53:40;6.30;30.20
14053;DHT22;7101;51.600;7.310;2023-02-11T00:56:07;6.20;28.40
14053;DHT22;7101;51.600;7.310;2023-02-11T00:58:34;6.20;29.20
14053;DHT22;7101;51.600;7.310;2023-02-11T01:01:02;6.20;30.80
14053;DHT22;7101;51.600;7.310;2023-02-11T01:03:29;6.20;29.50
14053;DHT22;7101;51.600;7.310;2023-02-11T01:05:57;6.20;31.50
14053;DHT22;7101;51.600;7.310;2023-02-11T01:08:24;6.30;28.70
14053;DHT22;7101;51.600;7.310;2023-02-11T01:10:55;6.30;22.50
14053;DHT22;7101;51.600;7.310;2023-02-11T01:13:23;6.30;25.00
14053;DHT22;7101;51.600;7.310;2023-02-11T01:15:50;6.40;19.70
14053;DHT22;7101;51.600;7.310;2023-02-11T01:18:17;6.50;16.00
14053;DHT22;7101;51.600;7.310;2023-02-11T01:20:45;6.50;10.10
14053;DHT22;7101;51.600;7.310;2023-02-11T01:23:13;6.50;10.50
14053;DHT22;7101;51.600;7.310;2023-02-11T01:25:40;6.50;10.00
14053;DHT22;7101;51.600;7.310;2023-02-11T01:28:14;6.50;9.00
14053;DHT22;7101;51.600;7.310;2023-02-11T01:30:41;6.50;8.40
14053;DHT22;7101;51.600;7.310;2023-02-11T01:33:08;6.40;9.10
14053;DHT22;7101;51.600;7.310;2023-02-11T01:35:36;6.50;9.90
14053;DHT22;7101;51.600;7.310;2023-02-11T01:38:03;6.40;8.60
14053;DHT22;7101;51.600;7.310;2023-02-11T01:40:33;6.50;6.50
14053;DHT22;7101;51.600;7.310;2023-02-11T01:43:00;6.50;3.80
14053;DHT22;7101;51.600;7.310;2023-02-11T01:45:56;6.50;1.00
14053;DHT22;7101;51.600;7.310;2023-02-11T01:48:27;6.50;1.00
14053;DHT22;7101;51.600;7.310;2023-02-11T01:51:00;6.50;2.40
14053;DHT22;7101;51.600;7.310;2023-02-11T01:53:29;6.60;1.00
14053;DHT22;7101;51.600;7.310;2023-02-11T01:56:17;6.50;1.00
14053;DHT22;7101;51.600;7.310;2023-02-11T01:59:06;6.50;2.30
14053;DHT22;7101;51.600;7.310;2023-02-11T02:01:33;6.50;4.70
14053;DHT22;7101;51.600;7.310;2023-02-11T02:04:02;6.50;3.40
14053;DHT22;7101;51.600;7.310;2023-02-11T02:06:33;6.50;1.00
14053;DHT22;7101;51.600;7.310;2023-02-11T02:09:04;6.50;1.30
14053;DHT22;7101;51.600;7.310;2023-02-11T02:11:33;6.50;3.10
14053;DHT22;7101;51.600;7.310;2023-02-11T02:14:00;6.50;3.10
14053;DHT22;7101;51.600;7.310;2023-02-11T02:16:30;6.40;1.00
14053;DHT22;7101;51.600;7.310;2023-02-11T02:19:17;6.50;1.00
14053;DHT22;7101;51.600;7.310;2023-02-11T02:22:09;6.50;1.00
14053;DHT22;7101;51.600;7.310;2023-02-11T02:25:10;6.40;1.00
14053;DHT22;7101;51.600;7.310;2023-02-11T02:27:54;6.40;1.00
14053;DHT22;7101;51.600;7.310;2023-02-11T02:30:52;6.50;1.00
14053;DHT22;7101;51.600;7.310;2023-02-11T02:33:29;6.50;1.00
14053;DHT22;7101;51.600;7.310;2023-02-11T02:36:07;6.50;1.00
14053;DHT22;7101;51.600;7.310;2023-02-11T02:38:38;6.50;1.00
14053;DHT22;7101;51.600;7.310;2023-02-11T02:41:07;6.40;1.00
14053;DHT22;7101;51.600;7.310;2023-02-11T02:43:38;6.60;1.00
14053;DHT22;7101;51.600;7.310;2023-02-11T02:46:13;6.40;1.00
14053;DHT22;7101;51.600;7.310;2023-02-11T02:48:42;6.50;1.00
14053;DHT22;7101;51.600;7.310;2023-02-11T02:54:27;6.50;1.00
14053;DHT22;7101;51.600;7.310;2023-02-11T02:56:59;6.50;1.00
14053;DHT22;7101;51.600;7.310;2023-02-11T02:59:40;6.50;1.00
14053;DHT22;7101;51.600;7.310;2023-02-11T03:02:15;6.40;1.00
14053;DHT22;7101;51.600;7.310;2023-02-11T03:04:51;6.40;1.00
14053;DHT22;7101;51.600;7.310;2023-02-11T03:07:24;6.40;1.00
14053;DHT22;7101;51.600;7.310;2023-02-11T03:09:59;6.30;1.00
14053;DHT22;7101;51.600;7.310;2023-02-11T03:12:29;6.30;1.00
14053;DHT22;7101;51.600;7.310;2023-02-11T03:14:58;6.40;1.00
14053;DHT22;7101;51.600;7.310;2023-02-11T03:17:27;6.30;1.00
14053;DHT22;7101;51.600;7.310;2023-02-11T03:19:57;6.30;1.00
14053;DHT22;7101;51.600;7.310;2023-02-11T03:22:31;6.30;1.00
14053;DHT22;7101;51.600;7.310;2023-02-11T03:31:51;6.40;1.00
14053;DHT22;7101;51.600;7.310;2023-02-11T03:34:26;6.30;1.00
14053;DHT22;7101;51.600;7.310;2023-02-11T03:37:00;6.30;1.00
14053;DHT22;7101;51.600;7.310;2023-02-11T03:39:34;6.30;1.00
14053;DHT22;7101;51.600;7.310;2023-02-11T03:42:03;6.30;1.00
14053;DHT22;7101;51.600;7.310;2023-02-11T03:44:35;6.40;1.00
14053;DHT22;7101;51.600;7.310;2023-02-11T03:47:05;6.30;1.00
14053;DHT22;7101;51.600;7.310;2023-02-11T03:49:34;6.30;1.00
14053;DHT22;7101;51.600;7.310;2023-02-11T03:52:05;6.30;3.90
14053;DHT22;7101;51.600;7.310;2023-02-11T03:54:33;6.20;7.30
14053;DHT22;7101;51.600;7.310;2023-02-11T03:57:01;6.30;7.00
14053;DHT22;7101;51.600;7.310;2023-02-11T03:59:28;6.30;6.00
14053;DHT22;7101;51.600;7.310;2023-02-11T04:01:55;6.20;13.50
14053;DHT22;7101;51.600;7.310;2023-02-11T04:04:24;6.30;11.30
14053;DHT22;7101;51.600;7.310;2023-02-11T04:06:50;6.30;12.90
14053;DHT22;7101;51.600;7.310;2023-02-11T04:09:19;6.10;19.00
14053;DHT22;7101;51.600;7.310;2023-02-11T04:11:45;6.20;23.40
14053;DHT22;7101;51.600;7.310;2023-02-11T04:14:12;6.20;24.10
14053;DHT22;7101;51.600;7.310;2023-02-11T04:16:39;6.10;27.60
14053;DHT22;7101;51.600;7.310;2023-02-11T04:19:06;6.20;33.30
14053;DHT22;7101;51.600;7.310;2023-02-11T04:21:33;6.10;34.60
14053;DHT22;7101;51.600;7.310;2023-02-11T04:23:59;6.00;55.60
14053;DHT22;7101;51.600;7.310;2023-02-11T04:26:28;6.00;73.40
14053;DHT22;7101;51.600;7.310;2023-02-11T04:28:55;6.00;83.30
14053;DHT22;7101;51.600;7.310;2023-02-11T04:31:22;6.00;94.30
14053;DHT22;7101;51.600;7.310;2023-02-11T04:33:49;6.00;99.90
14053;DHT22;7101;51.600;7.310;2023-02-11T04:36:16;6.00;99.90
14053;DHT22;7101;51.600;7.310;2023-02-11T04:38:42;6.00;99.90
14053;DHT22;7101;51.600;7.310;2023-02-11T04:41:09;5.90;99.90
14053;DHT22;7101;51.600;7.310;2023-02-11T04:43:37;5.90;99.90
14053;DHT22;7101;51.600;7.310;2023-02-11T04:46:04;5.90;99.90
14053;DHT22;7101;51.600;7.310;2023-02-11T04:48:31;5.90;99.90
14053;DHT22;7101;51.600;7.310;2023-02-11T04:50:59;5.90;99.90
14053;DHT22;7101;51.600;7.310;2023-02-11T04:53:26;5.80;99.90
14053;DHT22;7101;51.600;7.310;2023-02-11T04:55:53;5.90;99.90
14053;DHT22;7101;51.600;7.310;2023-02-11T04:58:20;5.90;99.90
14053;DHT22;7101;51.600;7.310;2023-02-11T05:00:49;5.90;99.90
14053;DHT22;7101;51.600;7.310;2023-02-11T05:03:16;5.90;99.90
14053;DHT22;7101;51.600;7.310;2023-02-11T05:05:43;5.90;99.90
14053;DHT22;7101;51.600;7.310;2023-02-11T05:08:10;5.80;99.90
14053;DHT22;7101;51.600;7.310;2023-02-11T05:10:39;5.80;99.90
14053;DHT22;7101;51.600;7.310;2023-02-11T05:13:06;5.80;99.90
14053;DHT22;7101;51.600;7.310;2023-02-11T05:15:33;5.80;99.90
14053;DHT22;7101;51.600;7.310;2023-02-11T05:18:01;5.80;99.90
14053;DHT22;7101;51.600;7.310;2023-02-11T05:20:28;5.70;99.90
14053;DHT22;7101;51.600;7.310;2023-02-11T05:22:55;5.70;99.90
14053;DHT22;7101;51.600;7.310;2023-02-11T05:25:22;5.80;99.90
14053;DHT22;7101;51.600;7.310;2023-02-11T05:27:48;5.70;99.90
14053;DHT22;7101;51.600;7.310;2023-02-11T05:30:16;5.70;99.90
14053;DHT22;7101;51.600;7.310;2023-02-11T05:32:43;5.70;99.90
14053;DHT22;7101;51.600;7.310;2023-02-11T05:35:11;5.80;99.90
14053;DHT22;7101;51.600;7.310;2023-02-11T05:37:38;5.80;99.90
14053;DHT22;7101;51.600;7.310;2023-02-11T05:40:05;5.80;99.90
14053;DHT22;7101;51.600;7.310;2023-02-11T05:42:33;5.80;99.90
14053;DHT22;7101;51.600;7.310;2023-02-11T05:44:59;5.80;99.90
14053;DHT22;7101;51.600;7.310;2023-02-11T05:47:26;5.80;99.90
14053;DHT22;7101;51.600;7.310;2023-02-11T05:49:53;5.70;99.90
14053;DHT22;7101;51.600;7.310;2023-02-11T05:52:22;5.70;99.90
14053;DHT22;7101;51.600;7.310;2023-02-11T05:54:49;5.70;99.90
14053;DHT22;7101;51.600;7.310;2023-02-11T05:57:16;5.70;99.90
14053;DHT22;7101;51.600;7.310;2023-02-11T05:59:43;5.70;99.90
14053;DHT22;7101;51.600;7.310;2023-02-11T06:02:12;5.70;99.90
14053;DHT22;7101;51.600;7.310;2023-02-11T06:04:38;5.80;99.90
14053;DHT22;7101;51.600;7.310;2023-02-11T06:07:05;5.80;99.90
14053;DHT22;7101;51.600;7.310;2023-02-11T06:09:34;5.80;99.90
14053;DHT22;7101;51.600;7.310;2023-02-11T06:12:02;5.80;99.90
14053;DHT22;7101;51.600;7.310;2023-02-11T06:14:28;5.80;99.90
14053;DHT22;7101;51.600;7.310;2023-02-11T06:16:57;5.80;99.90
14053;DHT22;7101;51.600;7.310;2023-02-11T06:19:24;5.80;99.90
14053;DHT22;7101;51.600;7.310;2023-02-11T06:21:51;5.70;99.90
14053;DHT22;7101;51.600;7.310;2023-02-11T06:24:18;5.80;99.90
14053;DHT22;7101;51.600;7.310;2023-02-11T06:26:46;5.80;99.90
14053;DHT22;7101;51.600;7.310;2023-02-11T06:29:13;5.80;99.90
14053;DHT22;7101;51.600;7.310;2023-02-11T06:31:39;5.80;99.90
14053;DHT22;7101;51.600;7.310;2023-02-11T06:34:07;5.80;99.90
14053;DHT22;7101;51.600;7.310;2023-02-11T06:36:35;5.80;99.90
14053;DHT22;7101;51.600;7.310;2023-02-11T06:39:02;5.90;99.90
14053;DHT22;7101;51.600;7.310;2023-02-11T06:41:29;5.90;99.90
14053;DHT22;7101;51.600;7.310;2023-02-11T06:43:57;5.90;99.90
14053;DHT22;7101;51.600;7.310;2023-02-11T06:46:24;5.90;99.90
14053;DHT22;7101;51.600;7.310;2023-02-11T06:48:51;5.80;99.90
14053;DHT22;7101;51.600;7.310;2023-02-11T06:51:18;5.80;99.90
14053;DHT22;7101;51.600;7.310;2023-02-11T06:53:47;5.90;99.90
14053;DHT22;7101;51.600;7.310;2023-02-11T06:56:15;5.90;99.90
14053;DHT22;7101;51.600;7.310;2023-02-11T06:58:42;5.90;99.90
14053;DHT22;7101;51.600;7.310;2023-02-11T07:01:12;5.90;99.90
14053;DHT22;7101;51.600;7.310;2023-02-11T07:03:43;5.90;99.90
14053;DHT22;7101;51.600;7.310;2023-02-11T07:06:13;5.90;99.90
14053;DHT22;7101;51.600;7.310;2023-02-11T07:08:40;6.00;99.90
14053;DHT22;7101;51.600;7.310;2023-02-11T07:11:10;6.00;99.90
14053;DHT22;7101;51.600;7.310;2023-02-11T07:13:37;5.90;99.90
14053;DHT22;7101;51.600;7.310;2023-02-11T07:16:05;5.90;99.90
14053;DHT22;7101;51.600;7.310;2023-02-11T07:18:34;6.00;99.90
14053;DHT22;7101;51.600;7.310;2023-02-11T07:21:03;5.90;99.90
14053;DHT22;7101;51.600;7.310;2023-02-11T07:23:31;5.90;99.90
14053;DHT22;7101;51.600;7.310;2023-02-11T07:26:01;6.00;99.90
14053;DHT22;7101;51.600;7.310;2023-02-11T07:28:29;6.00;99.90
14053;DHT22;7101;51.600;7.310;2023-02-11T07:30:55;6.00;99.90
14053;DHT22;7101;51.600;7.310;2023-02-11T07:33:23;6.00;99.90
14053;DHT22;7101;51.600;7.310;2023-02-11T07:35:51;6.10;99.90
14053;DHT22;7101;51.600;7.310;2023-02-11T07:38:17;6.10;99.90
14053;DHT22;7101;51.600;7.310;2023-02-11T07:40:44;6.10;99.90
14053;DHT22;7101;51.600;7.310;2023-02-11T07:43:12;6.10;99.90
14053;DHT22;7101;51.600;7.310;2023-02-11T07:45:40;6.10;99.90
14053;DHT22;7101;51.600;7.310;2023-02-11T07:48:06;6.10;99.90
14053;DHT22;7101;51.600;7.310;2023-02-11T07:50:33;6.10;99.90
14053;DHT22;7101;51.600;7.310;2023-02-11T07:53:02;6.10;99.90
14053;DHT22;7101;51.600;7.310;2023-02-11T07:55:29;6.10;99.90
14053;DHT22;7101;51.600;7.310;2023-02-11T07:57:56;6.20;99.90
14053;DHT22;7101;51.600;7.310;2023-02-11T08:00:24;6.20;99.90
14053;DHT22;7101;51.600;7.310;2023-02-11T08:02:51;6.20;99.90
14053;DHT22;7101;51.600;7.310;2023-02-11T08:05:17;6.20;99.90
14053;DHT22;7101;51.600;7.310;2023-02-11T08:07:44;6.20;99.90
14053;DHT22;7101;51.600;7.310;2023-02-11T08:10:14;6.20;99.90
14053;DHT22;7101;51.600;7.310;2023-02-11T08:12:41;6.30;99.90
14053;DHT22;7101;51.600;7.310;2023-02-11T08:15:08;6.30;99.90
14053;DHT22;7101;51.600;7.310;2023-02-11T08:17:35;6.30;99.90
14053;DHT22;7101;51.600;7.310;2023-02-11T08:20:02;6.30;99.90
14053;DHT22;7101;51.600;7.310;2023-02-11T08:22:30;6.30;99.90
14053;DHT22;7101;51.600;7.310;2023-02-11T08:24:57;6.30;99.90
14053;DHT22;7101;51.600;7.310;2023-02-11T08:27:26;6.30;99.90
14053;DHT22;7101;51.600;7.310;2023-02-11T08:29:53;6.30;99.90
14053;DHT22;7101;51.600;7.310;2023-02-11T08:32:20;6.40;99.90
14053;DHT22;7101;51.600;7.310;2023-02-11T08:34:58;6.40;99.90
14053;DHT22;7101;51.600;7.310;2023-02-11T08:37:25;6.40;99.90
14053;DHT22;7101;51.600;7.310;2023-02-11T08:39:53;6.40;99.90
14053;DHT22;7101;51.600;7.310;2023-02-11T08:42:20;6.50;99.90
14053;DHT22;7101;51.600;7.310;2023-02-11T08:44:49;6.50;99.90
14053;DHT22;7101;51.600;7.310;2023-02-11T08:47:16;6.50;99.90
14053;DHT22;7101;51.600;7.310;2023-02-11T08:49:43;6.50;99.90
14053;DHT22;7101;51.600;7.310;2023-02-11T08:52:10;6.50;99.90
14053;DHT22;7101;51.600;7.310;2023-02-11T08:54:37;6.60;99.90
14053;DHT22;7101;51.600;7.310;2023-02-11T08:57:04;6.60;99.90
14053;DHT22;7101;51.600;7.310;2023-02-11T08:59:31;6.60;99.90
14053;DHT22;7101;51.600;7.310;2023-02-11T09:02:00;6.60;99.90
14053;DHT22;7101;51.600;7.310;2023-02-11T09:04:27;6.70;99.90
14053;DHT22;7101;51.600;7.310;2023-02-11T09:06:54;6.70;99.90
14053;DHT22;7101;51.600;7.310;2023-02-11T09:09:21;6.80;99.90
14053;DHT22;7101;51.600;7.310;2023-02-11T09:11:47;6.90;99.90
14053;DHT22;7101;51.600;7.310;2023-02-11T09:14:17;6.90;99.90
14053;DHT22;7101;51.600;7.310;2023-02-11T09:16:45;6.90;99.90
14053;DHT22;7101;51.600;7.310;2023-02-11T09:19:14;7.10;99.90
14053;DHT22;7101;51.600;7.310;2023-02-11T09:21:41;7.00;99.90
14053;DHT22;7101;51.600;7.310;2023-02-11T09:24:08;7.00;99.90
14053;DHT22;7101;51.600;7.310;2023-02-11T09:26:36;7.10;99.90
14053;DHT22;7101;51.600;7.310;2023-02-11T09:29:04;7.00;99.90
14053;DHT22;7101;51.600;7.310;2023-02-11T09:31:31;7.10;99.90
14053;DHT22;7101;51.600;7.310;2023-02-11T09:34:00;7.20;99.90
14053;DHT22;7101;51.600;7.310;2023-02-11T09:36:31;7.20;99.90
14053;DHT22;7101;51.600;7.310;2023-02-11T09:39:00;7.20;99.90
14053;DHT22;7101;51.600;7.310;2023-02-11T09:41:40;7.20;99.90
14053;DHT22;7101;51.600;7.310;2023-02-11T09:44:16;7.20;99.90
14053;DHT22;7101;51.600;7.310;2023-02-11T09:46:49;7.30;99.90
14053;DHT22;7101;51.600;7.310;2023-02-11T09:49:22;7.30;99.90
14053;DHT22;7101;51.600;7.310;2023-02-11T09:51:57;7.40;99.90
14053;DHT22;7101;51.600;7.310;2023-02-11T09:54:30;7.40;99.90
14053;DHT22;7101;51.600;7.310;2023-02-11T09:56:57;7.40;99.90
14053;DHT22;7101;51.600;7.310;2023-02-11T09:59:24;7.40;99.90
14053;DHT22;7101;51.600;7.310;2023-02-11T10:01:54;7.40;99.90
14053;DHT22;7101;51.600;7.310;2023-02-11T10:04:36;7.40;99.90
14053;DHT22;7101;51.600;7.310;2023-02-11T10:07:16;7.40;99.90
14053;DHT22;7101;51.600;7.310;2023-02-11T10:09:55;7.50;99.90
14053;DHT22;7101;51.600;7.310;2023-02-11T10:12:36;7.50;99.90
14053;DHT22;7101;51.600;7.310;2023-02-11T10:15:14;7.50;99.90
14053;DHT22;7101;51.600;7.310;2023-02-11T10:17:55;7.60;99.90
14053;DHT22;7101;51.600;7.310;2023-02-11T10:20:30;7.60;99.90
14053;DHT22;7101;51.600;7.310;2023-02-11T10:23:06;7.70;97.70
14053;DHT22;7101;51.600;7.310;2023-02-11T10:25:37;7.70;94.50
14053;DHT22;7101;51.600;7.310;2023-02-11T10:28:11;7.70;90.00
14053;DHT22;7101;51.600;7.310;2023-02-11T10:30:42;7.70;85.50
14053;DHT22;7101;51.600;7.310;2023-02-11T10:33:16;7.70;90.60
14053;DHT22;7101;51.600;7.310;2023-02-11T10:35:44;7.70;88.60
14053;DHT22;7101;51.600;7.310;2023-02-11T10:38:13;7.60;87.60
14053;DHT22;7101;51.600;7.310;2023-02-11T10:40:40;7.60;91.00
14053;DHT22;7101;51.600;7.310;2023-02-11T10:43:10;7.60;95.50
14053;DHT22;7101;51.600;7.310;2023-02-11T10:45:42;7.70;97.60
14053;DHT22;7101;51.600;7.310;2023-02-11T10:48:43;7.70;89.60
14053;DHT22;7101;51.600;7.310;2023-02-11T10:51:20;7.70;90.60
14053;DHT22;7101;51.600;7.310;2023-02-11T10:53:50;7.70;90.20
14053;DHT22;7101;51.600;7.310;2023-02-11T10:56:35;7.70;90.70
14053;DHT22;7101;51.600;7.310;2023-02-11T10:59:05;7.70;88.70
14053;DHT22;7101;51.600;7.310;2023-02-11T11:01:41;7.80;93.40
14053;DHT22;7101;51.600;7.310;2023-02-11T11:04:31;7.90;75.20
14053;DHT22;7101;51.600;7.310;2023-02-11T11:07:11;8.00;78.70
14053;DHT22;7101;51.600;7.310;2023-02-11T11:09:46;8.00;69.40
14053;DHT22;7101;51.600;7.310;2023-02-11T11:12:25;7.90;64.60
14053;DHT22;7101;51.600;7.310;2023-02-11T11:14:57;7.90;76.10
14053;DHT22;7101;51.600;7.310;2023-02-11T11:17:25;7.90;71.10
14053;DHT22;7101;51.600;7.310;2023-02-11T11:20:18;7.90;77.90
14053;DHT22;7101;51.600;7.310;2023-02-11T11:22:46;8.00;69.60
14053;DHT22;7101;51.600;7.310;2023-02-11T11:25:23;8.00;65.80
14053;DHT22;7101;51.600;7.310;2023-02-11T11:27:53;8.00;69.60
14053;DHT22;7101;51.600;7.310;2023-02-11T11:30:24;8.10;65.30
14053;DHT22;7101;51.600;7.310;2023-02-11T11:32:52;8.10;58.60
14053;DHT22;7101;51.600;7.310;2023-02-11T11:35:24;8.20;58.60
14053;DHT22;7101;51.600;7.310;2023-02-11T11:37:53;8.20;59.30
14053;DHT22;7101;51.600;7.310;2023-02-11T11:40:24;8.30;49.30
14053;DHT22;7101;51.600;7.310;2023-02-11T11:43:06;8.20;54.60
14053;DHT22;7101;51.600;7.310;2023-02-11T11:45:52;8.30;45.10
14053;DHT22;7101;51.600;7.310;2023-02-11T11:48:21;8.20;49.50
14053;DHT22;7101;51.600;7.310;2023-02-11T11:50:52;8.20;49.40
14053;DHT22;7101;51.600;7.310;2023-02-11T11:53:24;8.30;51.70
14053;DHT22;7101;51.600;7.310;2023-02-11T11:55:59;8.30;46.30
14053;DHT22;7101;51.600;7.310;2023-02-11T11:58:29;8.30;54.20
14053;DHT22;7101;51.600;7.310;2023-02-11T12:01:05;8.40;41.00
14053;DHT22;7101;51.600;7.310;2023-02-11T12:04:03;8.40;36.20
14053;DHT22;7101;51.600;7.310;2023-02-11T12:06:44;8.40;30.10
14053;DHT22;7101;51.600;7.310;2023-02-11T12:09:22;8.30;36.20
14053;DHT22;7101;51.600;7.310;2023-02-11T12:12:24;8.30;45.40
14053;DHT22;7101;51.600;7.310;2023-02-11T12:15:10;8.40;47.40
14053;DHT22;7101;51.600;7.310;2023-02-11T12:20:34;8.70;32.50
14053;DHT22;7101;51.600;7.310;2023-02-11T12:23:31;8.80;23.50
14053;DHT22;7101;51.600;7.310;2023-02-11T12:26:10;8.90;17.80
14053;DHT22;7101;51.600;7.310;2023-02-11T12:28:49;8.80;8.20
14053;DHT22;7101;51.600;7.310;2023-02-11T12:31:29;8.90;16.30
14053;DHT22;7101;51.600;7.310;2023-02-11T12:34:17;8.80;19.70
14053;DHT22;7101;51.600;7.310;2023-02-11T12:36:59;8.80;19.50
14053;DHT22;7101;51.600;7.310;2023-02-11T12:39:41;8.80;18.00
14053;DHT22;7101;51.600;7.310;2023-02-11T12:42:35;8.80;8.40
14053;DHT22;7101;51.600;7.310;2023-02-11T12:45:30;8.70;4.40
14053;DHT22;7101;51.600;7.310;2023-02-11T12:48:12;8.70;11.20
14053;DHT22;7101;51.600;7.310;2023-02-11T12:50:50;8.60;13.10
14053;DHT22;7101;51.600;7.310;2023-02-11T12:53:31;8.60;15.20
14053;DHT22;7101;51.600;7.310;2023-02-11T12:56:05;8.60;16.00
14053;DHT22;7101;51.600;7.310;2023-02-11T12:58:36;8.60;23.60
14053;DHT22;7101;51.600;7.310;2023-02-11T13:01:09;8.60;20.70
14053;DHT22;7101;51.600;7.310;2023-02-11T13:03:40;8.60;12.90
14053;DHT22;7101;51.600;7.310;2023-02-11T13:06:11;8.70;16.10
14053;DHT22;7101;51.600;7.310;2023-02-11T13:08:42;8.60;20.00
14053;DHT22;7101;51.600;7.310;2023-02-11T13:11:14;8.60;19.60
14053;DHT22;7101;51.600;7.310;2023-02-11T13:13:47;8.60;18.30
14053;DHT22;7101;51.600;7.310;2023-02-11T13:16:22;8.60;13.90
14053;DHT22;7101;51.600;7.310;2023-02-11T13:18:55;8.50;18.50
14053;DHT22;7101;51.600;7.310;2023-02-11T13:21:45;8.40;28.30
14053;DHT22;7101;51.600;7.310;2023-02-11T13:24:21;8.50;29.70
14053;DHT22;7101;51.600;7.310;2023-02-11T13:26:57;8.50;25.80
14053;DHT22;7101;51.600;7.310;2023-02-11T13:29:31;8.50;36.20
14053;DHT22;7101;51.600;7.310;2023-02-11T13:32:08;8.50;27.50
14053;DHT22;7101;51.600;7.310;2023-02-11T13:34:56;8.60;26.60
14053;DHT22;7101;51.600;7.310;2023-02-11T13:37:24;8.60;26.70
14053;DHT22;7101;51.600;7.310;2023-02-11T13:39:56;8.60;31.30
14053;DHT22;7101;51.600;7.310;2023-02-11T13:42:24;8.70;29.60
14053;DHT22;7101;51.600;7.310;2023-02-11T13:44:51;8.80;21.80
14053;DHT22;7101;51.600;7.310;2023-02-11T13:47:29;8.80;17.20
14053;DHT22;7101;51.600;7.310;2023-02-11T13:50:06;8.80;16.90
14053;DHT22;7101;51.600;7.310;2023-02-11T13:52:36;8.90;7.50
14053;DHT22;7101;51.600;7.310;2023-02-11T13:55:14;9.00;9.80
14053;DHT22;7101;51.600;7.310;2023-02-11T13:58:17;9.10;1.00
14053;DHT22;7101;51.600;7.310;2023-02-11T14:00:47;9.30;1.00
14053;DHT22;7101;51.600;7.310;2023-02-11T14:03:26;9.40;1.00
14053;DHT22;7101;51.600;7.310;2023-02-11T14:06:31;9.40;1.00
14053;DHT22;7101;51.600;7.310;2023-02-11T14:09:39;9.40;1.00
14053;DHT22;7101;51.600;7.310;2023-02-11T14:12:31;9.40;1.00
14053;DHT22;7101;51.600;7.310;2023-02-11T14:17:43;9.40;1.00
14053;DHT22;7101;51.600;7.310;2023-02-11T14:20:35;9.50;1.00
14053;DHT22;7101;51.600;7.310;2023-02-11T14:23:03;9.60;1.00
14053;DHT22;7101;51.600;7.310;2023-02-11T14:25:31;9.40;1.00
14053;DHT22;7101;51.600;7.310;2023-02-11T14:28:05;9.60;1.00
14053;DHT22;7101;51.600;7.310;2023-02-11T14:30:55;9.60;1.00
14053;DHT22;7101;51.600;7.310;2023-02-11T14:33:54;9.50;1.00
14053;DHT22;7101;51.600;7.310;2023-02-11T14:39:46;9.70;1.00
14053;DHT22;7101;51.600;7.310;2023-02-11T14:42:19;9.60;1.00
14053;DHT22;7101;51.600;7.310;2023-02-11T14:44:48;9.70;1.00
14053;DHT22;7101;51.600;7.310;2023-02-11T14:47:19;9.70;1.00
14053;DHT22;7101;51.600;7.310;2023-02-11T14:49:48;9.60;1.00
14053;DHT22;7101;51.600;7.310;2023-02-11T14:52:23;9.60;1.00
14053;DHT22;7101;51.600;7.310;2023-02-11T14:54:58;9.60;1.00
14053;DHT22;7101;51.600;7.310;2023-02-11T14:57:26;9.60;1.00
14053;DHT22;7101;51.600;7.310;2023-02-11T14:59:55;9.60;1.00
14053;DHT22;7101;51.600;7.310;2023-02-11T15:02:32;9.70;1.00
14053;DHT22;7101;51.600;7.310;2023-02-11T15:05:17;9.80;1.00
14053;DHT22;7101;51.600;7.310;2023-02-11T15:07:47;9.80;1.00
14053;DHT22;7101;51.600;7.310;2023-02-11T15:10:23;9.80;1.00
14053;DHT22;7101;51.600;7.310;2023-02-11T15:12:52;9.70;1.00
14053;DHT22;7101;51.600;7.310;2023-02-11T15:15:19;9.70;1.00
14053;DHT22;7101;51.600;7.310;2023-02-11T15:17:48;9.60;1.00
14053;DHT22;7101;51.600;7.310;2023-02-11T15:20:21;9.60;1.00
14053;DHT22;7101;51.600;7.310;2023-02-11T15:22:54;9.50;1.00
14053;DHT22;7101;51.600;7.310;2023-02-11T15:25:22;9.40;1.00
14053;DHT22;7101;51.600;7.310;2023-02-11T15:27:51;9.40;1.00
14053;DHT22;7101;51.600;7.310;2023-02-11T15:30:30;9.40;1.00
14053;DHT22;7101;51.600;7.310;2023-02-11T15:33:01;9.40;1.00
14053;DHT22;7101;51.600;7.310;2023-02-11T15:35:31;9.40;1.00
14053;DHT22;7101;51.600;7.310;2023-02-11T15:37:59;9.40;1.00
14053;DHT22;7101;51.600;7.310;2023-02-11T15:40:28;9.30;1.00
14053;DHT22;7101;51.600;7.310;2023-02-11T15:42:58;9.30;1.00
14053;DHT22;7101;51.600;7.310;2023-02-11T15:45:29;9.30;1.00
14053;DHT22;7101;51.600;7.310;2023-02-11T15:48:06;9.30;1.00
14053;DHT22;7101;51.600;7.310;2023-02-11T15:50:36;9.20;1.00
14053;DHT22;7101;51.600;7.310;2023-02-11T15:53:22;9.20;1.00
14053;DHT22;7101;51.600;7.310;2023-02-11T15:55:52;9.30;1.00
14053;DHT22;7101;51.600;7.310;2023-02-11T15:58:21;9.20;1.00
14053;DHT22;7101;51.600;7.310;2023-02-11T16:00:50;9.20;1.00
14053;DHT22;7101;51.600;7.310;2023-02-11T16:03:22;9.30;1.00
14053;DHT22;7101;51.600;7.310;2023-02-11T16:05:50;9.30;1.00
14053;DHT22;7101;51.600;7.310;2023-02-11T16:08:22;9.30;1.00
14053;DHT22;7101;51.600;7.310;2023-02-11T16:10:54;9.20;1.00
14053;DHT22;7101;51.600;7.310;2023-02-11T16:13:24;9.20;1.00
14053;DHT22;7101;51.600;7.310;2023-02-11T16:15:54;9.20;1.00
14053;DHT22;7101;51.600;7.310;2023-02-11T16:18:31;9.10;1.00
14053;DHT22;7101;51.600;7.310;2023-02-11T16:20:59;9.10;1.00
14053;DHT22;7101;51.600;7.310;2023-02-11T16:23:28;9.10;1.00
14053;DHT22;7101;51.600;7.310;2023-02-11T16:25:59;9.10;1.00
14053;DHT22;7101;51.600;7.310;2023-02-11T16:28:27;9.10;1.00
14053;DHT22;7101;51.600;7.310;2023-02-11T16:30:55;9.10;1.00
14053;DHT22;7101;51.600;7.310;2023-02-11T16:33:22;9.10;1.00
14053;DHT22;7101;51.600;7.310;2023-02-11T16:35:50;8.90;1.00
14053;DHT22;7101;51.600;7.310;2023-02-11T16:38:17;9.00;1.00
14053;DHT22;7101;51.600;7.310;2023-02-11T16:40:45;9.00;1.00
14053;DHT22;7101;51.600;7.310;2023-02-11T16:43:14;9.00;1.00
14053;DHT22;7101;51.600;7.310;2023-02-11T16:45:43;9.00;1.00
14053;DHT22;7101;51.600;7.310;2023-02-11T16:48:14;8.90;1.00
14053;DHT22;7101;51.600;7.310;2023-02-11T16:50:44;8.90;1.00
14053;DHT22;7101;51.600;7.310;2023-02-11T16:53:16;8.90;1.00
14053;DHT22;7101;51.600;7.310;2023-02-11T16:55:43;8.90;1.00